sensor_id;sensor_type;location;lat;lon;timestamp;P1;durP1;ratioP1;P2;durP2;ratioP2
12654;SDS011;6392;44.644;11.448;2023-08-08T00:01:43;1.87;;;1.17;;
12654;SDS011;6392;44.644;11.448;2023-08-08T00:04:10;1.10;;;1.00;;
12654;SDS011;6392;44.644;11.448;2023-08-08T00:06:39;2.47;;;1.00;;
12654;SDS011;6392;44.644;11.448;2023-08-08T00:09:11;1.57;;;1.00;;
12654;SDS011;6392;44.644;11.448;2023-08-08T00:11:38;1.03;;;0.87;;
12654;SDS011;6392;44.644;11.448;2023-08-08T00:14:08;1.57;;;1.10;;
12654;SDS011;6392;44.644;11.448;2023-08-08T00:16:35;2.73;;;1.20;;
12654;SDS011;6392;44.644;11.448;2023-08-08T00:19:02;1.77;;;1.27;;
12654;SDS011;6392;44.644;11.448;2023-08-08T00:21:31;1.83;;;0.73;;
12654;SDS011;6392;44.644;11.448;2023-08-08T00:23:59;1.20;;;1.00;;
12654;SDS011;6392;44.644;11.448;2023-08-08T00:26:32;2.43;;;0.93;;
12654;SDS011;6392;44.644;11.448;2023-08-08T00:29:00;1.53;;;0.90;;
12654;SDS011;6392;44.644;11.448;2023-08-08T00:31:27;2.43;;;1.10;;
12654;SDS011;6392;44.644;11.448;2023-08-08T00:33:56;2.67;;;0.80;;
12654;SDS011;6392;44.644;11.448;2023-08-08T00:36:23;2.43;;;1.17;;
12654;SDS011;6392;44.644;11.448;2023-08-08T00:38:50;1.43;;;0.90;;
12654;SDS011;6392;44.644;11.448;2023-08-08T00:41:19;1.17;;;1.00;;
12654;SDS011;6392;44.644;11.448;2023-08-08T00:43:51;2.67;;;0.90;;
12654;SDS011;6392;44.644;11.448;2023-08-08T00:46:19;1.30;;;0.90;;
12654;SDS011;6392;44.644;11.448;2023-08-08T00:48:49;2.13;;;1.10;;
12654;SDS011;6392;44.644;11.448;2023-08-08T00:51:16;1.10;;;0.93;;
12654;SDS011;6392;44.644;11.448;2023-08-08T00:53:45;1.97;;;0.90;;
12654;SDS011;6392;44.644;11.448;2023-08-08T00:56:13;1.90;;;0.70;;
12654;SDS011;6392;44.644;11.448;2023-08-08T00:58:44;0.97;;;0.80;;
12654;SDS011;6392;44.644;11.448;2023-08-08T01:01:15;1.27;;;0.70;;
12654;SDS011;6392;44.644;11.448;2023-08-08T01:03:43;2.23;;;0.90;;
12654;SDS011;6392;44.644;11.448;2023-08-08T01:06:13;1.43;;;0.73;;
12654;SDS011;6392;44.644;11.448;2023-08-08T01:08:48;1.10;;;0.83;;
12654;SDS011;6392;44.644;11.448;2023-08-08T01:11:23;1.10;;;0.83;;
12654;SDS011;6392;44.644;11.448;2023-08-08T01:13:52;0.80;;;0.80;;
12654;SDS011;6392;44.644;11.448;2023-08-08T01:16:22;1.03;;;0.90;;
12654;SDS011;6392;44.644;11.448;2023-08-08T01:18:50;1.27;;;0.80;;
12654;SDS011;6392;44.644;11.448;2023-08-08T01:21:18;2.80;;;1.10;;
12654;SDS011;6392;44.644;11.448;2023-08-08T01:23:52;1.77;;;0.97;;
12654;SDS011;6392;44.644;11.448;2023-08-08T01:26:23;1.87;;;0.90;;
12654;SDS011;6392;44.644;11.448;2023-08-08T01:28:52;0.80;;;0.63;;
12654;SDS011;6392;44.644;11.448;2023-08-08T01:31:20;1.83;;;0.70;;
12654;SDS011;6392;44.644;11.448;2023-08-08T01:33:48;1.50;;;0.60;;
12654;SDS011;6392;44.644;11.448;2023-08-08T01:36:18;1.53;;;0.80;;
12654;SDS011;6392;44.644;11.448;2023-08-08T01:38:52;0.90;;;0.60;;
12654;SDS011;6392;44.644;11.448;2023-08-08T01:41:26;1.27;;;0.70;;
12654;SDS011;6392;44.644;11.448;2023-08-08T01:43:54;3.40;;;0.90;;
12654;SDS011;6392;44.644;11.448;2023-08-08T01:46:25;2.03;;;0.80;;
12654;SDS011;6392;44.644;11.448;2023-08-08T01:48:53;2.33;;;0.87;;
12654;SDS011;6392;44.644;11.448;2023-08-08T01:51:20;1.03;;;0.80;;
12654;SDS011;6392;44.644;11.448;2023-08-08T01:53:50;1.17;;;0.93;;
12654;SDS011;6392;44.644;11.448;2023-08-08T01:56:19;1.93;;;0.90;;
12654;SDS011;6392;44.644;11.448;2023-08-08T01:58:48;1.47;;;1.00;;
12654;SDS011;6392;44.644;11.448;2023-08-08T02:01:22;1.87;;;0.90;;
12654;SDS011;6392;44.644;11.448;2023-08-08T02:03:50;2.97;;;0.80;;
12654;SDS011;6392;44.644;11.448;2023-08-08T02:06:17;0.87;;;0.73;;
12654;SDS011;6392;44.644;11.448;2023-08-08T02:08:44;1.00;;;0.80;;
12654;SDS011;6392;44.644;11.448;2023-08-08T02:11:12;1.47;;;0.90;;
12654;SDS011;6392;44.644;11.448;2023-08-08T02:13:41;1.00;;;0.73;;
12654;SDS011;6392;44.644;11.448;2023-08-08T02:16:18;0.97;;;0.87;;
12654;SDS011;6392;44.644;11.448;2023-08-08T02:18:46;1.20;;;0.87;;
12654;SDS011;6392;44.644;11.448;2023-08-08T02:21:13;1.00;;;0.90;;
12654;SDS011;6392;44.644;11.448;2023-08-08T02:23:40;0.87;;;0.70;;
12654;SDS011;6392;44.644;11.448;2023-08-08T02:26:07;1.30;;;0.90;;
12654;SDS011;6392;44.644;11.448;2023-08-08T02:28:34;1.83;;;0.93;;
12654;SDS011;6392;44.644;11.448;2023-08-08T02:31:01;1.00;;;0.90;;
12654;SDS011;6392;44.644;11.448;2023-08-08T02:33:32;2.90;;;1.00;;
12654;SDS011;6392;44.644;11.448;2023-08-08T02:35:59;3.07;;;1.00;;
12654;SDS011;6392;44.644;11.448;2023-08-08T02:38:31;1.60;;;0.90;;
12654;SDS011;6392;44.644;11.448;2023-08-08T02:41:03;1.43;;;0.97;;
12654;SDS011;6392;44.644;11.448;2023-08-08T02:43:33;1.73;;;0.90;;
12654;SDS011;6392;44.644;11.448;2023-08-08T02:46:03;1.77;;;1.07;;
12654;SDS011;6392;44.644;11.448;2023-08-08T02:48:30;2.60;;;1.10;;
12654;SDS011;6392;44.644;11.448;2023-08-08T02:51:00;2.13;;;1.00;;
12654;SDS011;6392;44.644;11.448;2023-08-08T02:53:27;3.03;;;1.07;;
12654;SDS011;6392;44.644;11.448;2023-08-08T02:55:56;1.10;;;0.70;;
12654;SDS011;6392;44.644;11.448;2023-08-08T02:58:24;1.17;;;0.80;;
12654;SDS011;6392;44.644;11.448;2023-08-08T03:00:51;0.83;;;0.83;;
12654;SDS011;6392;44.644;11.448;2023-08-08T03:03:17;1.43;;;0.90;;
12654;SDS011;6392;44.644;11.448;2023-08-08T03:05:46;1.57;;;1.03;;
12654;SDS011;6392;44.644;11.448;2023-08-08T03:08:13;1.10;;;0.90;;
12654;SDS011;6392;44.644;11.448;2023-08-08T03:10:40;1.70;;;0.73;;
12654;SDS011;6392;44.644;11.448;2023-08-08T03:13:07;0.90;;;0.80;;
12654;SDS011;6392;44.644;11.448;2023-08-08T03:15:34;2.20;;;0.90;;
12654;SDS011;6392;44.644;11.448;2023-08-08T03:18:01;0.70;;;0.70;;
12654;SDS011;6392;44.644;11.448;2023-08-08T03:20:28;2.10;;;1.20;;
12654;SDS011;6392;44.644;11.448;2023-08-08T03:22:56;0.90;;;0.80;;
12654;SDS011;6392;44.644;11.448;2023-08-08T03:25:23;1.57;;;1.20;;
12654;SDS011;6392;44.644;11.448;2023-08-08T03:27:50;1.70;;;0.97;;
12654;SDS011;6392;44.644;11.448;2023-08-08T03:30:17;2.17;;;0.73;;
12654;SDS011;6392;44.644;11.448;2023-08-08T03:32:44;1.97;;;0.90;;
12654;SDS011;6392;44.644;11.448;2023-08-08T03:35:10;2.63;;;0.80;;
12654;SDS011;6392;44.644;11.448;2023-08-08T03:37:37;1.37;;;0.90;;
12654;SDS011;6392;44.644;11.448;2023-08-08T03:40:07;1.63;;;0.77;;
12654;SDS011;6392;44.644;11.448;2023-08-08T03:42:34;1.30;;;0.97;;
12654;SDS011;6392;44.644;11.448;2023-08-08T03:45:01;0.80;;;0.80;;
12654;SDS011;6392;44.644;11.448;2023-08-08T03:47:28;1.87;;;0.93;;
12654;SDS011;6392;44.644;11.448;2023-08-08T03:49:55;1.57;;;1.00;;
12654;SDS011;6392;44.644;11.448;2023-08-08T03:52:22;1.27;;;1.00;;
12654;SDS011;6392;44.644;11.448;2023-08-08T03:54:51;0.73;;;0.70;;
12654;SDS011;6392;44.644;11.448;2023-08-08T03:57:19;1.20;;;0.90;;
12654;SDS011;6392;44.644;11.448;2023-08-08T03:59:46;1.33;;;0.80;;
12654;SDS011;6392;44.644;11.448;2023-08-08T04:02:13;1.10;;;0.90;;
12654;SDS011;6392;44.644;11.448;2023-08-08T04:04:40;2.00;;;0.90;;
12654;SDS011;6392;44.644;11.448;2023-08-08T04:07:07;1.13;;;0.90;;
12654;SDS011;6392;44.644;11.448;2023-08-08T04:09:34;1.10;;;0.80;;
12654;SDS011;6392;44.644;11.448;2023-08-08T04:12:01;1.93;;;0.90;;
12654;SDS011;6392;44.644;11.448;2023-08-08T04:14:29;1.93;;;1.00;;
12654;SDS011;6392;44.644;11.448;2023-08-08T04:16:56;0.83;;;0.73;;
12654;SDS011;6392;44.644;11.448;2023-08-08T04:19:23;2.67;;;1.00;;
12654;SDS011;6392;44.644;11.448;2023-08-08T04:21:50;1.20;;;1.10;;
12654;SDS011;6392;44.644;11.448;2023-08-08T04:24:17;0.73;;;0.67;;
12654;SDS011;6392;44.644;11.448;2023-08-08T04:26:44;1.20;;;0.83;;
12654;SDS011;6392;44.644;11.448;2023-08-08T04:29:11;1.03;;;0.87;;
12654;SDS011;6392;44.644;11.448;2023-08-08T04:31:39;0.73;;;0.70;;
12654;SDS011;6392;44.644;11.448;2023-08-08T04:34:06;1.60;;;0.77;;
12654;SDS011;6392;44.644;11.448;2023-08-08T04:36:33;4.50;;;1.10;;
12654;SDS011;6392;44.644;11.448;2023-08-08T04:39:00;4.47;;;1.17;;
12654;SDS011;6392;44.644;11.448;2023-08-08T04:41:28;2.40;;;0.93;;
12654;SDS011;6392;44.644;11.448;2023-08-08T04:43:55;2.10;;;0.93;;
12654;SDS011;6392;44.644;11.448;2023-08-08T04:46:22;2.00;;;1.30;;
12654;SDS011;6392;44.644;11.448;2023-08-08T04:48:51;0.80;;;0.70;;
12654;SDS011;6392;44.644;11.448;2023-08-08T04:51:18;2.37;;;0.70;;
12654;SDS011;6392;44.644;11.448;2023-08-08T04:53:45;2.47;;;0.97;;
12654;SDS011;6392;44.644;11.448;2023-08-08T04:56:12;3.27;;;0.80;;
12654;SDS011;6392;44.644;11.448;2023-08-08T04:58:39;0.80;;;0.70;;
12654;SDS011;6392;44.644;11.448;2023-08-08T05:01:06;0.70;;;0.70;;
12654;SDS011;6392;44.644;11.448;2023-08-08T05:03:34;2.03;;;1.00;;
12654;SDS011;6392;44.644;11.448;2023-08-08T05:06:02;1.87;;;0.90;;
12654;SDS011;6392;44.644;11.448;2023-08-08T05:08:29;1.10;;;0.70;;
12654;SDS011;6392;44.644;11.448;2023-08-08T05:10:56;2.30;;;0.90;;
12654;SDS011;6392;44.644;11.448;2023-08-08T05:13:23;1.63;;;0.80;;
12654;SDS011;6392;44.644;11.448;2023-08-08T05:15:50;2.27;;;1.10;;
12654;SDS011;6392;44.644;11.448;2023-08-08T05:18:17;1.17;;;0.90;;
12654;SDS011;6392;44.644;11.448;2023-08-08T05:20:44;0.93;;;0.80;;
12654;SDS011;6392;44.644;11.448;2023-08-08T05:23:12;2.80;;;1.30;;
12654;SDS011;6392;44.644;11.448;2023-08-08T05:25:39;1.40;;;1.00;;
12654;SDS011;6392;44.644;11.448;2023-08-08T05:28:07;1.87;;;1.00;;
12654;SDS011;6392;44.644;11.448;2023-08-08T05:30:34;1.37;;;1.00;;
12654;SDS011;6392;44.644;11.448;2023-08-08T05:33:02;1.20;;;1.10;;
12654;SDS011;6392;44.644;11.448;2023-08-08T05:35:29;2.23;;;0.90;;
12654;SDS011;6392;44.644;11.448;2023-08-08T05:37:56;2.03;;;1.20;;
12654;SDS011;6392;44.644;11.448;2023-08-08T05:40:25;1.23;;;0.80;;
12654;SDS011;6392;44.644;11.448;2023-08-08T05:42:52;1.43;;;0.87;;
12654;SDS011;6392;44.644;11.448;2023-08-08T05:45:19;1.47;;;1.10;;
12654;SDS011;6392;44.644;11.448;2023-08-08T05:47:46;2.67;;;1.67;;
12654;SDS011;6392;44.644;11.448;2023-08-08T05:50:13;1.23;;;0.90;;
12654;SDS011;6392;44.644;11.448;2023-08-08T05:52:40;0.77;;;0.77;;
12654;SDS011;6392;44.644;11.448;2023-08-08T05:55:07;2.87;;;1.07;;
12654;SDS011;6392;44.644;11.448;2023-08-08T05:57:36;2.30;;;0.80;;
12654;SDS011;6392;44.644;11.448;2023-08-08T06:00:03;1.90;;;0.97;;
12654;SDS011;6392;44.644;11.448;2023-08-08T06:02:33;1.33;;;1.03;;
12654;SDS011;6392;44.644;11.448;2023-08-08T06:05:00;1.37;;;1.23;;
12654;SDS011;6392;44.644;11.448;2023-08-08T06:07:27;1.13;;;1.00;;
12654;SDS011;6392;44.644;11.448;2023-08-08T06:09:54;1.57;;;0.90;;
12654;SDS011;6392;44.644;11.448;2023-08-08T06:12:22;2.63;;;1.17;;
12654;SDS011;6392;44.644;11.448;2023-08-08T06:14:50;1.20;;;0.90;;
12654;SDS011;6392;44.644;11.448;2023-08-08T06:17:17;0.80;;;0.80;;
12654;SDS011;6392;44.644;11.448;2023-08-08T06:19:44;2.27;;;1.13;;
12654;SDS011;6392;44.644;11.448;2023-08-08T06:22:11;2.03;;;1.03;;
12654;SDS011;6392;44.644;11.448;2023-08-08T06:24:38;3.27;;;1.63;;
12654;SDS011;6392;44.644;11.448;2023-08-08T06:27:05;2.60;;;1.23;;
12654;SDS011;6392;44.644;11.448;2023-08-08T06:29:32;1.30;;;1.10;;
12654;SDS011;6392;44.644;11.448;2023-08-08T06:32:01;3.00;;;0.97;;
12654;SDS011;6392;44.644;11.448;2023-08-08T06:34:28;2.00;;;0.80;;
12654;SDS011;6392;44.644;11.448;2023-08-08T06:36:55;2.03;;;1.03;;
12654;SDS011;6392;44.644;11.448;2023-08-08T06:39:22;2.63;;;0.80;;
12654;SDS011;6392;44.644;11.448;2023-08-08T06:41:49;1.73;;;0.90;;
12654;SDS011;6392;44.644;11.448;2023-08-08T06:44:16;0.97;;;0.83;;
12654;SDS011;6392;44.644;11.448;2023-08-08T06:46:43;2.87;;;1.10;;
12654;SDS011;6392;44.644;11.448;2023-08-08T06:49:11;1.30;;;0.77;;
12654;SDS011;6392;44.644;11.448;2023-08-08T06:51:38;1.93;;;0.80;;
12654;SDS011;6392;44.644;11.448;2023-08-08T06:54:05;7.07;;;1.57;;
12654;SDS011;6392;44.644;11.448;2023-08-08T06:56:33;2.53;;;0.90;;
12654;SDS011;6392;44.644;11.448;2023-08-08T06:59:00;1.77;;;1.20;;
12654;SDS011;6392;44.644;11.448;2023-08-08T07:01:27;2.07;;;0.93;;
12654;SDS011;6392;44.644;11.448;2023-08-08T07:03:54;6.30;;;1.00;;
12654;SDS011;6392;44.644;11.448;2023-08-08T07:06:22;3.63;;;0.70;;
12654;SDS011;6392;44.644;11.448;2023-08-08T07:08:49;0.80;;;0.70;;
12654;SDS011;6392;44.644;11.448;2023-08-08T07:11:16;3.80;;;0.90;;
12654;SDS011;6392;44.644;11.448;2023-08-08T07:13:43;2.17;;;0.87;;
12654;SDS011;6392;44.644;11.448;2023-08-08T07:16:10;1.13;;;0.83;;
12654;SDS011;6392;44.644;11.448;2023-08-08T07:18:37;2.73;;;0.90;;
12654;SDS011;6392;44.644;11.448;2023-08-08T07:21:04;4.63;;;1.30;;
12654;SDS011;6392;44.644;11.448;2023-08-08T07:23:33;1.47;;;0.80;;
12654;SDS011;6392;44.644;11.448;2023-08-08T07:26:00;2.50;;;1.40;;
12654;SDS011;6392;44.644;11.448;2023-08-08T07:28:27;2.13;;;0.83;;
12654;SDS011;6392;44.644;11.448;2023-08-08T07:30:54;0.80;;;0.80;;
12654;SDS011;6392;44.644;11.448;2023-08-08T07:33:21;1.43;;;0.73;;
12654;SDS011;6392;44.644;11.448;2023-08-08T07:35:48;2.53;;;0.97;;
12654;SDS011;6392;44.644;11.448;2023-08-08T07:38:15;1.63;;;1.10;;
12654;SDS011;6392;44.644;11.448;2023-08-08T07:40:43;2.80;;;1.17;;
12654;SDS011;6392;44.644;11.448;2023-08-08T07:43:11;1.53;;;0.80;;
12654;SDS011;6392;44.644;11.448;2023-08-08T07:45:38;1.90;;;1.20;;
12654;SDS011;6392;44.644;11.448;2023-08-08T07:48:05;2.00;;;1.20;;
12654;SDS011;6392;44.644;11.448;2023-08-08T07:50:32;3.10;;;1.10;;
12654;SDS011;6392;44.644;11.448;2023-08-08T07:52:59;1.00;;;0.90;;
12654;SDS011;6392;44.644;11.448;2023-08-08T07:55:26;1.77;;;1.10;;
12654;SDS011;6392;44.644;11.448;2023-08-08T07:57:54;1.37;;;1.00;;
12654;SDS011;6392;44.644;11.448;2023-08-08T08:00:22;1.23;;;1.00;;
12654;SDS011;6392;44.644;11.448;2023-08-08T08:02:49;1.77;;;0.93;;
12654;SDS011;6392;44.644;11.448;2023-08-08T08:05:16;1.93;;;0.90;;
12654;SDS011;6392;44.644;11.448;2023-08-08T08:07:43;2.30;;;1.33;;
12654;SDS011;6392;44.644;11.448;2023-08-08T08:10:11;1.90;;;1.20;;
12654;SDS011;6392;44.644;11.448;2023-08-08T08:12:39;2.00;;;1.23;;
12654;SDS011;6392;44.644;11.448;2023-08-08T08:15:09;5.77;;;2.33;;
12654;SDS011;6392;44.644;11.448;2023-08-08T08:17:36;3.33;;;1.20;;
12654;SDS011;6392;44.644;11.448;2023-08-08T08:20:03;2.83;;;1.50;;
12654;SDS011;6392;44.644;11.448;2023-08-08T08:22:36;7.93;;;1.43;;
12654;SDS011;6392;44.644;11.448;2023-08-08T08:25:04;4.60;;;1.93;;
12654;SDS011;6392;44.644;11.448;2023-08-08T08:27:32;2.70;;;1.70;;
12654;SDS011;6392;44.644;11.448;2023-08-08T08:30:03;9.43;;;1.70;;
12654;SDS011;6392;44.644;11.448;2023-08-08T08:32:33;5.80;;;2.07;;
12654;SDS011;6392;44.644;11.448;2023-08-08T08:35:01;3.70;;;1.83;;
12654;SDS011;6392;44.644;11.448;2023-08-08T08:37:28;3.67;;;1.90;;
12654;SDS011;6392;44.644;11.448;2023-08-08T08:39:56;4.23;;;2.03;;
12654;SDS011;6392;44.644;11.448;2023-08-08T08:42:23;2.43;;;1.67;;
12654;SDS011;6392;44.644;11.448;2023-08-08T08:44:52;3.03;;;2.00;;
12654;SDS011;6392;44.644;11.448;2023-08-08T08:47:24;3.70;;;1.87;;
12654;SDS011;6392;44.644;11.448;2023-08-08T08:49:53;3.73;;;1.77;;
12654;SDS011;6392;44.644;11.448;2023-08-08T08:52:20;4.27;;;2.10;;
12654;SDS011;6392;44.644;11.448;2023-08-08T08:54:48;2.77;;;1.97;;
12654;SDS011;6392;44.644;11.448;2023-08-08T08:57:15;3.83;;;1.73;;
12654;SDS011;6392;44.644;11.448;2023-08-08T08:59:42;3.17;;;1.90;;
12654;SDS011;6392;44.644;11.448;2023-08-08T09:02:09;2.40;;;1.83;;
12654;SDS011;6392;44.644;11.448;2023-08-08T09:04:37;6.23;;;1.97;;
12654;SDS011;6392;44.644;11.448;2023-08-08T09:07:06;3.57;;;2.17;;
12654;SDS011;6392;44.644;11.448;2023-08-08T09:09:33;5.23;;;2.40;;
12654;SDS011;6392;44.644;11.448;2023-08-08T09:12:02;4.83;;;2.30;;
12654;SDS011;6392;44.644;11.448;2023-08-08T09:14:31;4.60;;;2.33;;
12654;SDS011;6392;44.644;11.448;2023-08-08T09:16:58;5.30;;;2.20;;
12654;SDS011;6392;44.644;11.448;2023-08-08T09:19:25;3.17;;;1.80;;
12654;SDS011;6392;44.644;11.448;2023-08-08T09:21:52;5.07;;;2.10;;
12654;SDS011;6392;44.644;11.448;2023-08-08T09:24:21;3.93;;;1.97;;
12654;SDS011;6392;44.644;11.448;2023-08-08T09:26:48;3.87;;;2.23;;
12654;SDS011;6392;44.644;11.448;2023-08-08T09:29:15;1.93;;;1.23;;
12654;SDS011;6392;44.644;11.448;2023-08-08T09:31:42;4.13;;;1.60;;
12654;SDS011;6392;44.644;11.448;2023-08-08T09:34:09;7.33;;;2.10;;
12654;SDS011;6392;44.644;11.448;2023-08-08T09:36:36;2.70;;;1.60;;
12654;SDS011;6392;44.644;11.448;2023-08-08T09:39:04;3.63;;;1.60;;
12654;SDS011;6392;44.644;11.448;2023-08-08T09:41:33;3.13;;;1.27;;
12654;SDS011;6392;44.644;11.448;2023-08-08T09:44:01;3.87;;;1.33;;
12654;SDS011;6392;44.644;11.448;2023-08-08T09:46:29;1.87;;;1.20;;
12654;SDS011;6392;44.644;11.448;2023-08-08T09:48:56;2.93;;;1.50;;
12654;SDS011;6392;44.644;11.448;2023-08-08T09:51:24;6.00;;;2.63;;
12654;SDS011;6392;44.644;11.448;2023-08-08T09:53:53;2.67;;;1.10;;
12654;SDS011;6392;44.644;11.448;2023-08-08T09:56:20;2.97;;;1.53;;
12654;SDS011;6392;44.644;11.448;2023-08-08T09:58:51;1.73;;;1.23;;
12654;SDS011;6392;44.644;11.448;2023-08-08T10:01:19;1.93;;;1.37;;
12654;SDS011;6392;44.644;11.448;2023-08-08T10:03:47;2.33;;;1.00;;
12654;SDS011;6392;44.644;11.448;2023-08-08T10:06:17;1.97;;;1.53;;
12654;SDS011;6392;44.644;11.448;2023-08-08T10:08:45;1.77;;;1.40;;
12654;SDS011;6392;44.644;11.448;2023-08-08T10:11:13;2.47;;;1.27;;
12654;SDS011;6392;44.644;11.448;2023-08-08T10:13:47;2.30;;;1.30;;
12654;SDS011;6392;44.644;11.448;2023-08-08T10:16:16;1.30;;;0.90;;
12654;SDS011;6392;44.644;11.448;2023-08-08T10:18:44;1.33;;;1.17;;
12654;SDS011;6392;44.644;11.448;2023-08-08T10:21:11;2.93;;;0.90;;
12654;SDS011;6392;44.644;11.448;2023-08-08T10:23:39;1.00;;;0.90;;
12654;SDS011;6392;44.644;11.448;2023-08-08T10:26:17;2.07;;;1.40;;
12654;SDS011;6392;44.644;11.448;2023-08-08T10:28:52;1.43;;;1.10;;
12654;SDS011;6392;44.644;11.448;2023-08-08T10:31:23;2.60;;;1.10;;
12654;SDS011;6392;44.644;11.448;2023-08-08T10:34:00;2.73;;;1.27;;
12654;SDS011;6392;44.644;11.448;2023-08-08T10:36:42;1.47;;;1.07;;
12654;SDS011;6392;44.644;11.448;2023-08-08T10:39:11;3.93;;;0.90;;
12654;SDS011;6392;44.644;11.448;2023-08-08T10:41:44;1.87;;;1.13;;
12654;SDS011;6392;44.644;11.448;2023-08-08T10:44:12;1.70;;;1.00;;
12654;SDS011;6392;44.644;11.448;2023-08-08T10:46:41;1.20;;;1.00;;
12654;SDS011;6392;44.644;11.448;2023-08-08T10:49:08;1.97;;;0.90;;
12654;SDS011;6392;44.644;11.448;2023-08-08T10:51:40;1.70;;;0.80;;
12654;SDS011;6392;44.644;11.448;2023-08-08T10:54:12;1.00;;;0.90;;
12654;SDS011;6392;44.644;11.448;2023-08-08T10:56:40;1.87;;;0.80;;
12654;SDS011;6392;44.644;11.448;2023-08-08T10:59:14;1.83;;;0.90;;
12654;SDS011;6392;44.644;11.448;2023-08-08T11:01:46;1.00;;;0.90;;
12654;SDS011;6392;44.644;11.448;2023-08-08T11:04:15;2.17;;;1.10;;
12654;SDS011;6392;44.644;11.448;2023-08-08T11:06:44;1.43;;;0.93;;
12654;SDS011;6392;44.644;11.448;2023-08-08T11:09:12;0.70;;;0.60;;
12654;SDS011;6392;44.644;11.448;2023-08-08T11:11:40;2.07;;;0.93;;
12654;SDS011;6392;44.644;11.448;2023-08-08T11:14:10;0.90;;;0.80;;
12654;SDS011;6392;44.644;11.448;2023-08-08T11:16:38;1.30;;;0.70;;
12654;SDS011;6392;44.644;11.448;2023-08-08T11:19:06;0.87;;;0.87;;
12654;SDS011;6392;44.644;11.448;2023-08-08T11:21:34;1.57;;;0.70;;
12654;SDS011;6392;44.644;11.448;2023-08-08T11:24:03;2.33;;;0.90;;
12654;SDS011;6392;44.644;11.448;2023-08-08T11:26:31;2.73;;;0.87;;
12654;SDS011;6392;44.644;11.448;2023-08-08T11:28:58;1.30;;;0.97;;
12654;SDS011;6392;44.644;11.448;2023-08-08T11:31:26;1.00;;;0.87;;
12654;SDS011;6392;44.644;11.448;2023-08-08T11:33:54;1.53;;;0.80;;
12654;SDS011;6392;44.644;11.448;2023-08-08T11:36:24;1.30;;;0.97;;
12654;SDS011;6392;44.644;11.448;2023-08-08T11:38:51;1.17;;;0.90;;
12654;SDS011;6392;44.644;11.448;2023-08-08T11:41:20;0.80;;;0.80;;
12654;SDS011;6392;44.644;11.448;2023-08-08T11:43:50;1.70;;;0.63;;
12654;SDS011;6392;44.644;11.448;2023-08-08T11:46:18;1.30;;;0.97;;
12654;SDS011;6392;44.644;11.448;2023-08-08T11:48:48;0.90;;;0.67;;
12654;SDS011;6392;44.644;11.448;2023-08-08T11:51:15;1.60;;;0.83;;
12654;SDS011;6392;44.644;11.448;2023-08-08T11:53:50;2.97;;;0.80;;
12654;SDS011;6392;44.644;11.448;2023-08-08T11:56:19;2.10;;;0.80;;
12654;SDS011;6392;44.644;11.448;2023-08-08T11:58:47;1.93;;;0.70;;
12654;SDS011;6392;44.644;11.448;2023-08-08T12:01:15;0.83;;;0.83;;
12654;SDS011;6392;44.644;11.448;2023-08-08T12:03:45;1.63;;;0.80;;
12654;SDS011;6392;44.644;11.448;2023-08-08T12:06:12;0.90;;;0.80;;
12654;SDS011;6392;44.644;11.448;2023-08-08T12:08:40;3.00;;;1.00;;
12654;SDS011;6392;44.644;11.448;2023-08-08T12:11:10;1.43;;;0.90;;
12654;SDS011;6392;44.644;11.448;2023-08-08T12:13:39;1.13;;;0.80;;
12654;SDS011;6392;44.644;11.448;2023-08-08T12:16:08;1.30;;;0.80;;
12654;SDS011;6392;44.644;11.448;2023-08-08T12:18:36;1.53;;;0.90;;
12654;SDS011;6392;44.644;11.448;2023-08-08T12:21:04;2.00;;;0.90;;
12654;SDS011;6392;44.644;11.448;2023-08-08T12:23:31;0.85;;;0.82;;
12654;SDS011;6392;44.644;11.448;2023-08-08T12:25:59;1.00;;;0.73;;
12654;SDS011;6392;44.644;11.448;2023-08-08T12:28:27;1.10;;;0.83;;
12654;SDS011;6392;44.644;11.448;2023-08-08T12:30:55;0.90;;;0.80;;
12654;SDS011;6392;44.644;11.448;2023-08-08T12:33:22;0.77;;;0.70;;
12654;SDS011;6392;44.644;11.448;2023-08-08T12:35:49;0.67;;;0.60;;
12654;SDS011;6392;44.644;11.448;2023-08-08T12:38:16;0.82;;;0.77;;
12654;SDS011;6392;44.644;11.448;2023-08-08T12:40:43;0.87;;;0.73;;
12654;SDS011;6392;44.644;11.448;2023-08-08T12:43:12;1.60;;;0.80;;
12654;SDS011;6392;44.644;11.448;2023-08-08T12:45:43;2.27;;;0.90;;
12654;SDS011;6392;44.644;11.448;2023-08-08T12:48:11;1.17;;;0.83;;
12654;SDS011;6392;44.644;11.448;2023-08-08T12:50:38;1.30;;;0.90;;
12654;SDS011;6392;44.644;11.448;2023-08-08T12:53:05;1.13;;;0.80;;
12654;SDS011;6392;44.644;11.448;2023-08-08T12:55:33;1.57;;;0.90;;
12654;SDS011;6392;44.644;11.448;2023-08-08T12:58:00;1.10;;;0.60;;
12654;SDS011;6392;44.644;11.448;2023-08-08T13:00:28;1.10;;;0.70;;
12654;SDS011;6392;44.644;11.448;2023-08-08T13:02:56;1.23;;;1.00;;
12654;SDS011;6392;44.644;11.448;2023-08-08T13:05:23;2.03;;;0.90;;
12654;SDS011;6392;44.644;11.448;2023-08-08T13:07:50;6.17;;;1.07;;
12654;SDS011;6392;44.644;11.448;2023-08-08T13:10:18;1.50;;;0.83;;
12654;SDS011;6392;44.644;11.448;2023-08-08T13:12:48;1.00;;;0.83;;
12654;SDS011;6392;44.644;11.448;2023-08-08T13:15:15;0.90;;;0.80;;
12654;SDS011;6392;44.644;11.448;2023-08-08T13:17:42;1.07;;;0.70;;
12654;SDS011;6392;44.644;11.448;2023-08-08T13:20:11;2.50;;;0.70;;
12654;SDS011;6392;44.644;11.448;2023-08-08T13:22:38;4.10;;;0.90;;
12654;SDS011;6392;44.644;11.448;2023-08-08T13:25:07;0.70;;;0.70;;
12654;SDS011;6392;44.644;11.448;2023-08-08T13:27:35;1.07;;;0.97;;
12654;SDS011;6392;44.644;11.448;2023-08-08T13:30:02;1.30;;;0.90;;
12654;SDS011;6392;44.644;11.448;2023-08-08T13:32:30;1.33;;;0.80;;
12654;SDS011;6392;44.644;11.448;2023-08-08T13:34:57;0.90;;;0.77;;
12654;SDS011;6392;44.644;11.448;2023-08-08T13:37:26;0.80;;;0.80;;
12654;SDS011;6392;44.644;11.448;2023-08-08T13:39:53;1.50;;;0.80;;
12654;SDS011;6392;44.644;11.448;2023-08-08T13:42:20;3.75;;;0.95;;
12654;SDS011;6392;44.644;11.448;2023-08-08T13:44:47;0.60;;;0.60;;
12654;SDS011;6392;44.644;11.448;2023-08-08T13:47:14;2.45;;;1.00;;
12654;SDS011;6392;44.644;11.448;2023-08-08T13:49:41;0.80;;;0.77;;
12654;SDS011;6392;44.644;11.448;2023-08-08T13:52:08;1.00;;;0.70;;
12654;SDS011;6392;44.644;11.448;2023-08-08T13:54:37;0.77;;;0.70;;
12654;SDS011;6392;44.644;11.448;2023-08-08T13:57:04;0.73;;;0.70;;
12654;SDS011;6392;44.644;11.448;2023-08-08T13:59:31;1.10;;;1.00;;
12654;SDS011;6392;44.644;11.448;2023-08-08T14:01:58;1.10;;;0.83;;
12654;SDS011;6392;44.644;11.448;2023-08-08T14:04:25;2.33;;;0.80;;
12654;SDS011;6392;44.644;11.448;2023-08-08T14:06:52;3.53;;;0.93;;
12654;SDS011;6392;44.644;11.448;2023-08-08T14:09:19;2.65;;;0.90;;
12654;SDS011;6392;44.644;11.448;2023-08-08T14:11:48;1.40;;;1.10;;
12654;SDS011;6392;44.644;11.448;2023-08-08T14:14:15;1.10;;;1.00;;
12654;SDS011;6392;44.644;11.448;2023-08-08T14:16:42;0.97;;;0.70;;
12654;SDS011;6392;44.644;11.448;2023-08-08T14:19:09;0.98;;;0.80;;
12654;SDS011;6392;44.644;11.448;2023-08-08T14:21:38;1.33;;;1.00;;
12654;SDS011;6392;44.644;11.448;2023-08-08T14:24:05;1.10;;;0.90;;
12654;SDS011;6392;44.644;11.448;2023-08-08T14:26:32;0.80;;;0.60;;
12654;SDS011;6392;44.644;11.448;2023-08-08T14:29:01;0.80;;;0.80;;
12654;SDS011;6392;44.644;11.448;2023-08-08T14:31:28;1.10;;;1.00;;
12654;SDS011;6392;44.644;11.448;2023-08-08T14:33:55;0.93;;;0.80;;
12654;SDS011;6392;44.644;11.448;2023-08-08T14:36:22;2.53;;;1.10;;
12654;SDS011;6392;44.644;11.448;2023-08-08T14:38:49;2.30;;;1.05;;
12654;SDS011;6392;44.644;11.448;2023-08-08T14:41:16;0.90;;;0.77;;
12654;SDS011;6392;44.644;11.448;2023-08-08T14:43:44;1.45;;;1.00;;
12654;SDS011;6392;44.644;11.448;2023-08-08T14:46:14;5.37;;;1.20;;
12654;SDS011;6392;44.644;11.448;2023-08-08T14:48:41;2.30;;;1.42;;
12654;SDS011;6392;44.644;11.448;2023-08-08T14:51:08;7.90;;;1.45;;
12654;SDS011;6392;44.644;11.448;2023-08-08T14:53:36;0.70;;;0.65;;